sensor_id;sensor_type;location;lat;lon;timestamp;P1;durP1;ratioP1;P2;durP2;ratioP2
17604;SDS011;8921;50.964;6.800;2023-07-09T00:01:18;11.80;;;7.67;;
17604;SDS011;8921;50.964;6.800;2023-07-09T00:03:46;12.90;;;7.73;;
17604;SDS011;8921;50.964;6.800;2023-07-09T00:06:14;16.80;;;8.37;;
17604;SDS011;8921;50.964;6.800;2023-07-09T00:08:43;12.90;;;7.17;;
17604;SDS011;8921;50.964;6.800;2023-07-09T00:11:10;14.17;;;8.63;;
17604;SDS011;8921;50.964;6.800;2023-07-09T00:13:39;11.63;;;7.20;;
17604;SDS011;8921;50.964;6.800;2023-07-09T00:16:14;12.33;;;7.80;;
17604;SDS011;8921;50.964;6.800;2023-07-09T00:18:38;15.33;;;7.97;;
17604;SDS011;8921;50.964;6.800;2023-07-09T00:21:06;12.07;;;7.03;;
17604;SDS011;8921;50.964;6.800;2023-07-09T00:23:35;14.33;;;7.90;;
17604;SDS011;8921;50.964;6.800;2023-07-09T00:26:09;14.33;;;7.33;;
17604;SDS011;8921;50.964;6.800;2023-07-09T00:28:37;13.17;;;7.93;;
17604;SDS011;8921;50.964;6.800;2023-07-09T00:31:06;13.00;;;7.10;;
17604;SDS011;8921;50.964;6.800;2023-07-09T00:33:33;13.13;;;7.70;;
17604;SDS011;8921;50.964;6.800;2023-07-09T00:36:04;11.60;;;6.90;;
17604;SDS011;8921;50.964;6.800;2023-07-09T00:38:30;11.80;;;7.00;;
17604;SDS011;8921;50.964;6.800;2023-07-09T00:43:33;21.30;;;8.60;;
17604;SDS011;8921;50.964;6.800;2023-07-09T00:48:56;14.20;;;8.40;;
17604;SDS011;8921;50.964;6.800;2023-07-09T00:51:16;16.63;;;8.40;;
17604;SDS011;8921;50.964;6.800;2023-07-09T00:53:44;12.17;;;6.90;;
17604;SDS011;8921;50.964;6.800;2023-07-09T00:56:13;12.67;;;7.73;;
17604;SDS011;8921;50.964;6.800;2023-07-09T00:58:40;17.63;;;8.07;;
17604;SDS011;8921;50.964;6.800;2023-07-09T01:01:09;19.70;;;7.83;;
17604;SDS011;8921;50.964;6.800;2023-07-09T01:06:05;13.73;;;8.03;;
17604;SDS011;8921;50.964;6.800;2023-07-09T01:08:34;14.90;;;8.80;;
17604;SDS011;8921;50.964;6.800;2023-07-09T01:11:02;15.10;;;8.00;;
17604;SDS011;8921;50.964;6.800;2023-07-09T01:13:30;12.87;;;8.40;;
17604;SDS011;8921;50.964;6.800;2023-07-09T01:16:01;12.40;;;7.30;;
17604;SDS011;8921;50.964;6.800;2023-07-09T01:18:29;16.73;;;7.53;;
17604;SDS011;8921;50.964;6.800;2023-07-09T01:21:01;12.90;;;7.90;;
17604;SDS011;8921;50.964;6.800;2023-07-09T01:23:26;12.10;;;7.67;;
17604;SDS011;8921;50.964;6.800;2023-07-09T01:25:54;12.30;;;7.53;;
17604;SDS011;8921;50.964;6.800;2023-07-09T01:28:23;17.10;;;8.43;;
17604;SDS011;8921;50.964;6.800;2023-07-09T01:30:51;13.40;;;8.60;;
17604;SDS011;8921;50.964;6.800;2023-07-09T01:33:20;17.70;;;8.33;;
17604;SDS011;8921;50.964;6.800;2023-07-09T01:35:47;23.50;;;8.90;;
17604;SDS011;8921;50.964;6.800;2023-07-09T01:38:16;14.40;;;8.43;;
17604;SDS011;8921;50.964;6.800;2023-07-09T01:40:44;16.27;;;8.47;;
17604;SDS011;8921;50.964;6.800;2023-07-09T01:43:12;14.20;;;9.30;;
17604;SDS011;8921;50.964;6.800;2023-07-09T01:45:40;15.23;;;8.13;;
17604;SDS011;8921;50.964;6.800;2023-07-09T01:48:09;14.43;;;7.87;;
17604;SDS011;8921;50.964;6.800;2023-07-09T01:50:37;12.03;;;7.33;;
17604;SDS011;8921;50.964;6.800;2023-07-09T01:53:05;17.73;;;7.00;;
17604;SDS011;8921;50.964;6.800;2023-07-09T01:55:34;17.43;;;8.43;;
17604;SDS011;8921;50.964;6.800;2023-07-09T01:58:02;16.63;;;8.80;;
17604;SDS011;8921;50.964;6.800;2023-07-09T02:00:30;12.37;;;8.10;;
17604;SDS011;8921;50.964;6.800;2023-07-09T02:02:59;13.93;;;7.47;;
17604;SDS011;8921;50.964;6.800;2023-07-09T02:05:28;18.77;;;7.87;;
17604;SDS011;8921;50.964;6.800;2023-07-09T02:07:55;14.70;;;7.83;;
17604;SDS011;8921;50.964;6.800;2023-07-09T02:10:23;13.30;;;7.50;;
17604;SDS011;8921;50.964;6.800;2023-07-09T02:12:52;15.23;;;7.87;;
17604;SDS011;8921;50.964;6.800;2023-07-09T02:15:20;20.93;;;7.80;;
17604;SDS011;8921;50.964;6.800;2023-07-09T02:17:48;13.60;;;7.93;;
17604;SDS011;8921;50.964;6.800;2023-07-09T02:20:17;14.87;;;9.60;;
17604;SDS011;8921;50.964;6.800;2023-07-09T02:22:45;13.33;;;8.70;;
17604;SDS011;8921;50.964;6.800;2023-07-09T02:25:13;19.37;;;8.43;;
17604;SDS011;8921;50.964;6.800;2023-07-09T02:27:42;12.70;;;7.73;;
17604;SDS011;8921;50.964;6.800;2023-07-09T02:30:10;12.80;;;7.90;;
17604;SDS011;8921;50.964;6.800;2023-07-09T02:32:38;12.40;;;8.10;;
17604;SDS011;8921;50.964;6.800;2023-07-09T02:35:07;14.83;;;8.47;;
17604;SDS011;8921;50.964;6.800;2023-07-09T02:37:35;12.23;;;7.80;;
17604;SDS011;8921;50.964;6.800;2023-07-09T02:40:04;13.93;;;8.33;;
17604;SDS011;8921;50.964;6.800;2023-07-09T02:42:32;11.30;;;7.87;;
17604;SDS011;8921;50.964;6.800;2023-07-09T02:45:01;15.40;;;8.83;;
17604;SDS011;8921;50.964;6.800;2023-07-09T02:47:28;15.37;;;8.80;;
17604;SDS011;8921;50.964;6.800;2023-07-09T02:49:57;18.83;;;8.40;;
17604;SDS011;8921;50.964;6.800;2023-07-09T02:52:25;13.70;;;9.40;;
17604;SDS011;8921;50.964;6.800;2023-07-09T02:54:53;15.93;;;8.60;;
17604;SDS011;8921;50.964;6.800;2023-07-09T02:57:22;21.30;;;8.57;;
17604;SDS011;8921;50.964;6.800;2023-07-09T02:59:50;15.47;;;8.73;;
17604;SDS011;8921;50.964;6.800;2023-07-09T03:02:18;14.00;;;8.13;;
17604;SDS011;8921;50.964;6.800;2023-07-09T03:04:47;18.00;;;8.90;;
17604;SDS011;8921;50.964;6.800;2023-07-09T03:07:15;12.90;;;8.27;;
17604;SDS011;8921;50.964;6.800;2023-07-09T03:09:43;16.13;;;8.00;;
17604;SDS011;8921;50.964;6.800;2023-07-09T03:12:11;15.73;;;8.77;;
17604;SDS011;8921;50.964;6.800;2023-07-09T03:14:40;14.93;;;8.57;;
17604;SDS011;8921;50.964;6.800;2023-07-09T03:17:08;13.20;;;8.53;;
17604;SDS011;8921;50.964;6.800;2023-07-09T03:19:36;11.20;;;7.33;;
17604;SDS011;8921;50.964;6.800;2023-07-09T03:22:05;14.23;;;8.20;;
17604;SDS011;8921;50.964;6.800;2023-07-09T03:24:33;14.20;;;8.23;;
17604;SDS011;8921;50.964;6.800;2023-07-09T03:27:01;15.23;;;9.50;;
17604;SDS011;8921;50.964;6.800;2023-07-09T03:29:30;14.00;;;8.40;;
17604;SDS011;8921;50.964;6.800;2023-07-09T03:31:58;14.83;;;8.90;;
17604;SDS011;8921;50.964;6.800;2023-07-09T03:34:26;15.70;;;10.43;;
17604;SDS011;8921;50.964;6.800;2023-07-09T03:36:54;13.40;;;8.33;;
17604;SDS011;8921;50.964;6.800;2023-07-09T03:39:23;16.20;;;8.20;;
17604;SDS011;8921;50.964;6.800;2023-07-09T03:41:51;16.07;;;8.20;;
17604;SDS011;8921;50.964;6.800;2023-07-09T03:44:19;14.90;;;8.30;;
17604;SDS011;8921;50.964;6.800;2023-07-09T03:46:48;13.30;;;8.30;;
17604;SDS011;8921;50.964;6.800;2023-07-09T03:49:16;14.93;;;9.90;;
17604;SDS011;8921;50.964;6.800;2023-07-09T03:51:44;12.93;;;8.30;;
17604;SDS011;8921;50.964;6.800;2023-07-09T03:54:12;15.77;;;8.40;;
17604;SDS011;8921;50.964;6.800;2023-07-09T03:56:41;15.77;;;8.90;;
17604;SDS011;8921;50.964;6.800;2023-07-09T03:59:09;18.60;;;8.70;;
17604;SDS011;8921;50.964;6.800;2023-07-09T04:01:37;14.53;;;8.30;;
17604;SDS011;8921;50.964;6.800;2023-07-09T04:04:06;12.73;;;9.17;;
17604;SDS011;8921;50.964;6.800;2023-07-09T04:06:34;13.83;;;8.67;;
17604;SDS011;8921;50.964;6.800;2023-07-09T04:09:02;15.70;;;9.20;;
17604;SDS011;8921;50.964;6.800;2023-07-09T04:11:31;15.20;;;8.63;;
17604;SDS011;8921;50.964;6.800;2023-07-09T04:13:59;14.57;;;9.03;;
17604;SDS011;8921;50.964;6.800;2023-07-09T04:16:27;17.13;;;9.13;;
17604;SDS011;8921;50.964;6.800;2023-07-09T04:18:55;14.70;;;9.57;;
17604;SDS011;8921;50.964;6.800;2023-07-09T04:21:24;17.20;;;8.20;;
17604;SDS011;8921;50.964;6.800;2023-07-09T04:23:52;16.03;;;8.90;;
17604;SDS011;8921;50.964;6.800;2023-07-09T04:26:20;11.73;;;8.13;;
17604;SDS011;8921;50.964;6.800;2023-07-09T04:28:49;13.07;;;9.33;;
17604;SDS011;8921;50.964;6.800;2023-07-09T04:31:17;13.80;;;8.80;;
17604;SDS011;8921;50.964;6.800;2023-07-09T04:33:45;13.43;;;7.93;;
17604;SDS011;8921;50.964;6.800;2023-07-09T04:36:14;17.77;;;9.40;;
17604;SDS011;8921;50.964;6.800;2023-07-09T04:38:42;17.83;;;8.57;;
17604;SDS011;8921;50.964;6.800;2023-07-09T04:41:10;14.90;;;8.47;;
17604;SDS011;8921;50.964;6.800;2023-07-09T04:43:38;14.23;;;8.60;;
17604;SDS011;8921;50.964;6.800;2023-07-09T04:46:07;15.90;;;8.10;;
17604;SDS011;8921;50.964;6.800;2023-07-09T04:48:35;14.80;;;8.73;;
17604;SDS011;8921;50.964;6.800;2023-07-09T04:51:03;15.07;;;8.87;;
17604;SDS011;8921;50.964;6.800;2023-07-09T04:53:32;13.23;;;7.93;;
17604;SDS011;8921;50.964;6.800;2023-07-09T04:56:00;18.80;;;8.97;;
17604;SDS011;8921;50.964;6.800;2023-07-09T04:58:29;12.90;;;8.70;;
17604;SDS011;8921;50.964;6.800;2023-07-09T05:00:57;19.60;;;9.00;;
17604;SDS011;8921;50.964;6.800;2023-07-09T05:03:25;15.10;;;7.90;;
17604;SDS011;8921;50.964;6.800;2023-07-09T05:05:53;19.83;;;9.67;;
17604;SDS011;8921;50.964;6.800;2023-07-09T05:08:21;17.73;;;8.27;;
17604;SDS011;8921;50.964;6.800;2023-07-09T05:10:50;14.10;;;7.83;;
17604;SDS011;8921;50.964;6.800;2023-07-09T05:13:18;12.90;;;7.73;;
17604;SDS011;8921;50.964;6.800;2023-07-09T05:15:46;13.30;;;7.70;;
17604;SDS011;8921;50.964;6.800;2023-07-09T05:18:15;15.20;;;7.33;;
17604;SDS011;8921;50.964;6.800;2023-07-09T05:20:43;16.63;;;7.40;;
17604;SDS011;8921;50.964;6.800;2023-07-09T05:23:11;13.77;;;7.27;;
17604;SDS011;8921;50.964;6.800;2023-07-09T05:25:39;11.37;;;7.20;;
17604;SDS011;8921;50.964;6.800;2023-07-09T05:28:07;12.40;;;7.43;;
17604;SDS011;8921;50.964;6.800;2023-07-09T05:30:36;12.60;;;7.37;;
17604;SDS011;8921;50.964;6.800;2023-07-09T05:33:04;10.27;;;5.80;;
17604;SDS011;8921;50.964;6.800;2023-07-09T05:35:33;12.70;;;6.03;;
17604;SDS011;8921;50.964;6.800;2023-07-09T05:38:01;11.13;;;6.57;;
17604;SDS011;8921;50.964;6.800;2023-07-09T05:40:29;11.50;;;6.30;;
17604;SDS011;8921;50.964;6.800;2023-07-09T05:42:57;12.90;;;6.27;;
17604;SDS011;8921;50.964;6.800;2023-07-09T05:45:26;12.90;;;6.30;;
17604;SDS011;8921;50.964;6.800;2023-07-09T05:47:54;13.83;;;7.00;;
17604;SDS011;8921;50.964;6.800;2023-07-09T05:50:25;10.53;;;6.20;;
17604;SDS011;8921;50.964;6.800;2023-07-09T05:52:53;10.67;;;5.87;;
17604;SDS011;8921;50.964;6.800;2023-07-09T05:55:21;10.77;;;5.70;;
17604;SDS011;8921;50.964;6.800;2023-07-09T05:57:51;9.07;;;5.43;;
17604;SDS011;8921;50.964;6.800;2023-07-09T06:00:18;12.20;;;6.20;;
17604;SDS011;8921;50.964;6.800;2023-07-09T06:02:46;13.43;;;7.03;;
17604;SDS011;8921;50.964;6.800;2023-07-09T06:05:15;12.87;;;6.70;;
17604;SDS011;8921;50.964;6.800;2023-07-09T06:07:43;13.50;;;5.73;;
17604;SDS011;8921;50.964;6.800;2023-07-09T06:10:11;9.40;;;5.53;;
17604;SDS011;8921;50.964;6.800;2023-07-09T06:12:40;9.70;;;5.70;;
17604;SDS011;8921;50.964;6.800;2023-07-09T06:15:09;9.00;;;6.27;;
17604;SDS011;8921;50.964;6.800;2023-07-09T06:17:36;11.40;;;6.03;;
17604;SDS011;8921;50.964;6.800;2023-07-09T06:20:05;9.97;;;6.47;;
17604;SDS011;8921;50.964;6.800;2023-07-09T06:22:33;10.27;;;5.40;;
17604;SDS011;8921;50.964;6.800;2023-07-09T06:25:01;7.77;;;4.73;;
17604;SDS011;8921;50.964;6.800;2023-07-09T06:27:30;13.73;;;6.60;;
17604;SDS011;8921;50.964;6.800;2023-07-09T06:29:58;12.50;;;5.50;;
17604;SDS011;8921;50.964;6.800;2023-07-09T06:32:26;10.37;;;5.10;;
17604;SDS011;8921;50.964;6.800;2023-07-09T06:34:55;9.50;;;5.53;;
17604;SDS011;8921;50.964;6.800;2023-07-09T06:37:23;8.37;;;5.73;;
17604;SDS011;8921;50.964;6.800;2023-07-09T06:39:51;7.87;;;5.47;;
17604;SDS011;8921;50.964;6.800;2023-07-09T06:42:19;12.60;;;6.07;;
17604;SDS011;8921;50.964;6.800;2023-07-09T06:44:48;11.73;;;5.70;;
17604;SDS011;8921;50.964;6.800;2023-07-09T06:47:16;11.20;;;5.50;;
17604;SDS011;8921;50.964;6.800;2023-07-09T06:49:44;9.73;;;5.60;;
17604;SDS011;8921;50.964;6.800;2023-07-09T06:52:13;11.17;;;4.80;;
17604;SDS011;8921;50.964;6.800;2023-07-09T06:54:41;7.97;;;4.80;;
17604;SDS011;8921;50.964;6.800;2023-07-09T06:57:09;8.83;;;5.40;;
17604;SDS011;8921;50.964;6.800;2023-07-09T06:59:37;9.10;;;5.30;;
17604;SDS011;8921;50.964;6.800;2023-07-09T07:02:06;10.57;;;5.50;;
17604;SDS011;8921;50.964;6.800;2023-07-09T07:04:34;10.50;;;5.90;;
17604;SDS011;8921;50.964;6.800;2023-07-09T07:07:02;14.00;;;6.67;;
17604;SDS011;8921;50.964;6.800;2023-07-09T07:09:31;9.87;;;5.17;;
17604;SDS011;8921;50.964;6.800;2023-07-09T07:11:59;8.47;;;5.10;;
17604;SDS011;8921;50.964;6.800;2023-07-09T07:14:27;8.13;;;5.03;;
17604;SDS011;8921;50.964;6.800;2023-07-09T07:16:56;8.93;;;5.20;;
17604;SDS011;8921;50.964;6.800;2023-07-09T07:19:24;15.30;;;5.40;;
17604;SDS011;8921;50.964;6.800;2023-07-09T07:21:52;12.57;;;6.40;;
17604;SDS011;8921;50.964;6.800;2023-07-09T07:24:21;12.70;;;5.50;;
17604;SDS011;8921;50.964;6.800;2023-07-09T07:26:49;9.57;;;4.87;;
17604;SDS011;8921;50.964;6.800;2023-07-09T07:29:17;11.37;;;5.80;;
17604;SDS011;8921;50.964;6.800;2023-07-09T07:31:46;7.53;;;4.97;;
17604;SDS011;8921;50.964;6.800;2023-07-09T07:34:15;8.80;;;6.10;;
17604;SDS011;8921;50.964;6.800;2023-07-09T07:36:43;9.00;;;5.63;;
17604;SDS011;8921;50.964;6.800;2023-07-09T07:39:11;8.37;;;5.40;;
17604;SDS011;8921;50.964;6.800;2023-07-09T07:41:40;8.30;;;5.10;;
17604;SDS011;8921;50.964;6.800;2023-07-09T07:44:08;9.50;;;4.77;;
17604;SDS011;8921;50.964;6.800;2023-07-09T07:46:36;13.50;;;5.70;;
17604;SDS011;8921;50.964;6.800;2023-07-09T07:49:04;16.17;;;5.20;;
17604;SDS011;8921;50.964;6.800;2023-07-09T07:51:33;10.00;;;6.13;;
17604;SDS011;8921;50.964;6.800;2023-07-09T07:54:01;12.30;;;6.27;;
17604;SDS011;8921;50.964;6.800;2023-07-09T07:56:29;18.30;;;6.10;;
17604;SDS011;8921;50.964;6.800;2023-07-09T07:58:57;10.20;;;5.03;;
17604;SDS011;8921;50.964;6.800;2023-07-09T08:01:26;10.70;;;5.70;;
17604;SDS011;8921;50.964;6.800;2023-07-09T08:03:54;8.40;;;4.93;;
17604;SDS011;8921;50.964;6.800;2023-07-09T08:06:22;10.37;;;5.20;;
17604;SDS011;8921;50.964;6.800;2023-07-09T08:08:51;10.10;;;5.10;;
17604;SDS011;8921;50.964;6.800;2023-07-09T08:11:19;18.27;;;5.90;;
17604;SDS011;8921;50.964;6.800;2023-07-09T08:13:47;10.43;;;5.73;;
17604;SDS011;8921;50.964;6.800;2023-07-09T08:16:16;9.73;;;5.70;;
17604;SDS011;8921;50.964;6.800;2023-07-09T08:18:44;12.00;;;5.50;;
17604;SDS011;8921;50.964;6.800;2023-07-09T08:21:12;10.50;;;5.00;;
17604;SDS011;8921;50.964;6.800;2023-07-09T08:23:40;9.07;;;5.17;;
17604;SDS011;8921;50.964;6.800;2023-07-09T08:26:09;9.60;;;5.23;;
17604;SDS011;8921;50.964;6.800;2023-07-09T08:28:37;24.63;;;5.47;;
17604;SDS011;8921;50.964;6.800;2023-07-09T08:31:05;9.70;;;5.63;;
17604;SDS011;8921;50.964;6.800;2023-07-09T08:33:33;7.30;;;4.50;;
17604;SDS011;8921;50.964;6.800;2023-07-09T08:36:02;14.23;;;5.33;;
17604;SDS011;8921;50.964;6.800;2023-07-09T08:38:30;10.33;;;5.57;;
17604;SDS011;8921;50.964;6.800;2023-07-09T08:41:00;13.60;;;5.90;;
17604;SDS011;8921;50.964;6.800;2023-07-09T08:48:45;9.33;;;4.90;;
17604;SDS011;8921;50.964;6.800;2023-07-09T08:51:14;8.23;;;5.73;;
17604;SDS011;8921;50.964;6.800;2023-07-09T08:56:12;10.80;;;5.80;;
17604;SDS011;8921;50.964;6.800;2023-07-09T08:58:40;11.93;;;5.90;;
17604;SDS011;8921;50.964;6.800;2023-07-09T09:01:14;8.13;;;5.17;;
17604;SDS011;8921;50.964;6.800;2023-07-09T09:03:44;10.83;;;5.63;;
17604;SDS011;8921;50.964;6.800;2023-07-09T09:06:14;10.67;;;5.60;;
17604;SDS011;8921;50.964;6.800;2023-07-09T09:13:55;10.30;;;5.73;;
17604;SDS011;8921;50.964;6.800;2023-07-09T09:16:26;11.50;;;5.50;;
17604;SDS011;8921;50.964;6.800;2023-07-09T09:18:54;11.27;;;5.60;;
17604;SDS011;8921;50.964;6.800;2023-07-09T09:21:23;8.90;;;5.33;;
17604;SDS011;8921;50.964;6.800;2023-07-09T09:23:53;14.27;;;4.97;;
17604;SDS011;8921;50.964;6.800;2023-07-09T09:26:24;9.37;;;5.67;;
17604;SDS011;8921;50.964;6.800;2023-07-09T09:28:52;12.70;;;6.50;;
17604;SDS011;8921;50.964;6.800;2023-07-09T09:31:20;12.07;;;6.10;;
17604;SDS011;8921;50.964;6.800;2023-07-09T09:33:48;10.73;;;6.20;;
17604;SDS011;8921;50.964;6.800;2023-07-09T09:36:23;9.40;;;5.20;;
17604;SDS011;8921;50.964;6.800;2023-07-09T09:38:50;8.90;;;5.97;;
17604;SDS011;8921;50.964;6.800;2023-07-09T09:41:25;11.97;;;6.07;;
17604;SDS011;8921;50.964;6.800;2023-07-09T09:43:53;9.13;;;5.20;;
17604;SDS011;8921;50.964;6.800;2023-07-09T09:46:24;9.63;;;5.20;;
17604;SDS011;8921;50.964;6.800;2023-07-09T09:48:50;8.77;;;6.13;;
17604;SDS011;8921;50.964;6.800;2023-07-09T09:51:18;10.20;;;5.37;;
17604;SDS011;8921;50.964;6.800;2023-07-09T09:53:47;11.27;;;5.70;;
17604;SDS011;8921;50.964;6.800;2023-07-09T09:56:17;13.90;;;5.60;;
17604;SDS011;8921;50.964;6.800;2023-07-09T09:58:43;9.57;;;6.10;;
17604;SDS011;8921;50.964;6.800;2023-07-09T10:01:12;8.60;;;5.33;;
17604;SDS011;8921;50.964;6.800;2023-07-09T10:03:39;9.90;;;6.50;;
17604;SDS011;8921;50.964;6.800;2023-07-09T10:06:19;9.83;;;5.57;;
17604;SDS011;8921;50.964;6.800;2023-07-09T10:08:55;8.40;;;6.40;;
17604;SDS011;8921;50.964;6.800;2023-07-09T10:17:06;12.47;;;5.53;;
17604;SDS011;8921;50.964;6.800;2023-07-09T10:19:44;7.53;;;4.70;;
17604;SDS011;8921;50.964;6.800;2023-07-09T10:22:10;8.70;;;5.60;;
17604;SDS011;8921;50.964;6.800;2023-07-09T10:40:36;8.17;;;5.03;;
17604;SDS011;8921;50.964;6.800;2023-07-09T10:43:02;9.57;;;5.33;;
17604;SDS011;8921;50.964;6.800;2023-07-09T10:48:17;9.50;;;5.03;;
17604;SDS011;8921;50.964;6.800;2023-07-09T10:50:47;10.00;;;5.70;;
17604;SDS011;8921;50.964;6.800;2023-07-09T10:56:11;10.70;;;6.83;;
17604;SDS011;8921;50.964;6.800;2023-07-09T11:01:29;11.53;;;6.40;;
17604;SDS011;8921;50.964;6.800;2023-07-09T11:03:57;18.93;;;6.37;;
17604;SDS011;8921;50.964;6.800;2023-07-09T11:06:26;8.13;;;5.90;;
17604;SDS011;8921;50.964;6.800;2023-07-09T11:08:52;9.00;;;5.70;;
17604;SDS011;8921;50.964;6.800;2023-07-09T11:11:37;10.37;;;5.03;;
17604;SDS011;8921;50.964;6.800;2023-07-09T11:14:13;10.87;;;5.60;;
17604;SDS011;8921;50.964;6.800;2023-07-09T11:16:39;9.30;;;5.50;;
17604;SDS011;8921;50.964;6.800;2023-07-09T11:19:06;9.87;;;5.23;;
17604;SDS011;8921;50.964;6.800;2023-07-09T11:21:40;9.30;;;4.87;;
17604;SDS011;8921;50.964;6.800;2023-07-09T11:24:02;8.00;;;4.93;;
17604;SDS011;8921;50.964;6.800;2023-07-09T11:26:32;10.60;;;5.73;;
17604;SDS011;8921;50.964;6.800;2023-07-09T11:31:37;9.00;;;4.40;;
17604;SDS011;8921;50.964;6.800;2023-07-09T11:36:45;8.33;;;4.70;;
17604;SDS011;8921;50.964;6.800;2023-07-09T11:39:16;13.50;;;4.90;;
17604;SDS011;8921;50.964;6.800;2023-07-09T11:41:38;9.23;;;5.90;;
17604;SDS011;8921;50.964;6.800;2023-07-09T11:46:40;9.77;;;4.83;;
17604;SDS011;8921;50.964;6.800;2023-07-09T11:49:06;8.10;;;4.43;;
17604;SDS011;8921;50.964;6.800;2023-07-09T11:51:38;11.83;;;5.07;;
17604;SDS011;8921;50.964;6.800;2023-07-09T11:54:04;9.63;;;4.63;;
17604;SDS011;8921;50.964;6.800;2023-07-09T11:56:33;7.33;;;4.23;;
17604;SDS011;8921;50.964;6.800;2023-07-09T11:59:01;9.03;;;4.40;;
17604;SDS011;8921;50.964;6.800;2023-07-09T12:01:42;8.27;;;4.53;;
17604;SDS011;8921;50.964;6.800;2023-07-09T12:04:07;7.57;;;5.10;;
17604;SDS011;8921;50.964;6.800;2023-07-09T12:06:35;8.97;;;4.03;;
17604;SDS011;8921;50.964;6.800;2023-07-09T12:09:03;7.70;;;4.23;;
17604;SDS011;8921;50.964;6.800;2023-07-09T12:14:15;7.70;;;4.03;;
17604;SDS011;8921;50.964;6.800;2023-07-09T12:16:42;7.87;;;4.57;;
17604;SDS011;8921;50.964;6.800;2023-07-09T12:19:10;7.90;;;4.03;;
17604;SDS011;8921;50.964;6.800;2023-07-09T12:21:39;8.53;;;4.20;;
17604;SDS011;8921;50.964;6.800;2023-07-09T12:26:46;9.73;;;4.93;;
17604;SDS011;8921;50.964;6.800;2023-07-09T12:29:12;7.87;;;4.10;;
17604;SDS011;8921;50.964;6.800;2023-07-09T12:31:40;10.90;;;4.93;;
17604;SDS011;8921;50.964;6.800;2023-07-09T12:34:14;8.73;;;5.27;;
17604;SDS011;8921;50.964;6.800;2023-07-09T12:36:40;8.90;;;4.33;;
17604;SDS011;8921;50.964;6.800;2023-07-09T12:39:09;14.40;;;4.73;;
17604;SDS011;8921;50.964;6.800;2023-07-09T12:41:39;10.37;;;4.57;;
17604;SDS011;8921;50.964;6.800;2023-07-09T12:44:14;7.20;;;4.00;;
17604;SDS011;8921;50.964;6.800;2023-07-09T12:46:41;13.00;;;4.70;;
17604;SDS011;8921;50.964;6.800;2023-07-09T12:49:14;12.07;;;4.67;;
17604;SDS011;8921;50.964;6.800;2023-07-09T12:51:38;7.60;;;3.73;;
17604;SDS011;8921;50.964;6.800;2023-07-09T12:56:37;8.00;;;4.73;;
17604;SDS011;8921;50.964;6.800;2023-07-09T12:59:12;8.67;;;5.20;;
17604;SDS011;8921;50.964;6.800;2023-07-09T13:01:34;12.70;;;6.90;;
17604;SDS011;8921;50.964;6.800;2023-07-09T13:04:02;6.73;;;3.80;;
17604;SDS011;8921;50.964;6.800;2023-07-09T13:06:34;7.60;;;4.10;;
17604;SDS011;8921;50.964;6.800;2023-07-09T13:09:22;8.40;;;4.30;;
17604;SDS011;8921;50.964;6.800;2023-07-09T13:11:41;9.03;;;5.77;;
17604;SDS011;8921;50.964;6.800;2023-07-09T13:14:15;7.27;;;4.27;;
17604;SDS011;8921;50.964;6.800;2023-07-09T13:16:38;9.77;;;4.87;;
17604;SDS011;8921;50.964;6.800;2023-07-09T13:19:06;9.63;;;6.37;;
17604;SDS011;8921;50.964;6.800;2023-07-09T13:21:35;9.60;;;4.73;;
17604;SDS011;8921;50.964;6.800;2023-07-09T13:24:04;7.87;;;4.17;;
17604;SDS011;8921;50.964;6.800;2023-07-09T13:26:31;12.40;;;5.87;;
17604;SDS011;8921;50.964;6.800;2023-07-09T13:29:00;9.37;;;4.33;;
17604;SDS011;8921;50.964;6.800;2023-07-09T13:31:28;10.33;;;5.90;;
17604;SDS011;8921;50.964;6.800;2023-07-09T13:33:57;10.07;;;4.80;;
17604;SDS011;8921;50.964;6.800;2023-07-09T13:36:24;11.50;;;5.43;;
17604;SDS011;8921;50.964;6.800;2023-07-09T13:38:53;10.20;;;6.57;;
17604;SDS011;8921;50.964;6.800;2023-07-09T13:41:21;10.30;;;5.60;;
17604;SDS011;8921;50.964;6.800;2023-07-09T13:43:49;10.43;;;4.50;;
17604;SDS011;8921;50.964;6.800;2023-07-09T13:46:18;12.10;;;6.23;;
17604;SDS011;8921;50.964;6.800;2023-07-09T13:48:46;12.13;;;4.73;;
17604;SDS011;8921;50.964;6.800;2023-07-09T13:51:16;10.43;;;4.80;;
17604;SDS011;8921;50.964;6.800;2023-07-09T13:53:43;10.60;;;4.23;;
17604;SDS011;8921;50.964;6.800;2023-07-09T13:56:11;9.83;;;3.87;;
17604;SDS011;8921;50.964;6.800;2023-07-09T13:58:39;10.00;;;4.23;;
17604;SDS011;8921;50.964;6.800;2023-07-09T14:01:15;7.97;;;3.93;;
17604;SDS011;8921;50.964;6.800;2023-07-09T14:03:42;8.70;;;3.70;;
17604;SDS011;8921;50.964;6.800;2023-07-09T14:06:13;8.33;;;3.70;;
17604;SDS011;8921;50.964;6.800;2023-07-09T14:08:41;7.00;;;3.67;;
17604;SDS011;8921;50.964;6.800;2023-07-09T14:11:10;8.93;;;3.77;;
17604;SDS011;8921;50.964;6.800;2023-07-09T14:13:38;10.23;;;4.20;;
17604;SDS011;8921;50.964;6.800;2023-07-09T14:16:06;7.97;;;3.50;;
17604;SDS011;8921;50.964;6.800;2023-07-09T14:18:34;8.30;;;4.33;;
17604;SDS011;8921;50.964;6.800;2023-07-09T14:21:09;7.97;;;3.50;;
17604;SDS011;8921;50.964;6.800;2023-07-09T14:23:40;17.73;;;4.27;;
17604;SDS011;8921;50.964;6.800;2023-07-09T14:26:09;8.17;;;4.23;;
17604;SDS011;8921;50.964;6.800;2023-07-09T14:28:36;7.10;;;3.80;;
17604;SDS011;8921;50.964;6.800;2023-07-09T14:31:09;11.87;;;4.30;;
17604;SDS011;8921;50.964;6.800;2023-07-09T14:33:33;11.70;;;4.60;;
17604;SDS011;8921;50.964;6.800;2023-07-09T14:36:01;13.70;;;4.13;;
17604;SDS011;8921;50.964;6.800;2023-07-09T14:38:29;9.07;;;4.70;;
17604;SDS011;8921;50.964;6.800;2023-07-09T14:40:58;13.43;;;6.03;;
17604;SDS011;8921;50.964;6.800;2023-07-09T14:43:26;10.27;;;5.30;;
17604;SDS011;8921;50.964;6.800;2023-07-09T14:45:54;17.40;;;8.13;;
17604;SDS011;8921;50.964;6.800;2023-07-09T14:48:22;20.00;;;12.50;;
17604;SDS011;8921;50.964;6.800;2023-07-09T14:50:51;11.53;;;5.60;;
17604;SDS011;8921;50.964;6.800;2023-07-09T14:55:51;9.10;;;4.90;;
17604;SDS011;8921;50.964;6.800;2023-07-09T14:58:19;11.27;;;6.77;;
17604;SDS011;8921;50.964;6.800;2023-07-09T15:00:47;10.43;;;4.87;;
17604;SDS011;8921;50.964;6.800;2023-07-09T15:03:18;11.50;;;5.83;;
17604;SDS011;8921;50.964;6.800;2023-07-09T15:05:46;9.33;;;5.30;;
17604;SDS011;8921;50.964;6.800;2023-07-09T15:08:18;11.83;;;6.30;;
17604;SDS011;8921;50.964;6.800;2023-07-09T15:10:45;11.40;;;6.00;;
17604;SDS011;8921;50.964;6.800;2023-07-09T15:13:27;11.20;;;5.70;;
17604;SDS011;8921;50.964;6.800;2023-07-09T15:15:57;10.07;;;6.17;;
17604;SDS011;8921;50.964;6.800;2023-07-09T15:18:25;15.17;;;8.23;;
17604;SDS011;8921;50.964;6.800;2023-07-09T15:20:56;11.87;;;8.43;;
17604;SDS011;8921;50.964;6.800;2023-07-09T15:23:24;13.03;;;8.90;;
17604;SDS011;8921;50.964;6.800;2023-07-09T15:25:52;17.33;;;10.20;;
17604;SDS011;8921;50.964;6.800;2023-07-09T15:28:21;19.10;;;9.73;;
17604;SDS011;8921;50.964;6.800;2023-07-09T15:30:49;23.50;;;10.43;;
17604;SDS011;8921;50.964;6.800;2023-07-09T15:33:18;20.43;;;11.97;;
17604;SDS011;8921;50.964;6.800;2023-07-09T15:35:46;16.20;;;10.90;;
17604;SDS011;8921;50.964;6.800;2023-07-09T15:38:27;19.80;;;11.60;;
17604;SDS011;8921;50.964;6.800;2023-07-09T15:40:54;21.43;;;15.53;;
17604;SDS011;8921;50.964;6.800;2023-07-09T15:43:22;17.67;;;12.53;;
17604;SDS011;8921;50.964;6.800;2023-07-09T15:45:51;16.37;;;12.27;;
17604;SDS011;8921;50.964;6.800;2023-07-09T15:50:55;16.03;;;11.50;;
17604;SDS011;8921;50.964;6.800;2023-07-09T15:53:24;17.10;;;10.80;;
17604;SDS011;8921;50.964;6.800;2023-07-09T15:55:54;13.63;;;8.83;;
17604;SDS011;8921;50.964;6.800;2023-07-09T15:58:24;10.07;;;8.30;;
17604;SDS011;8921;50.964;6.800;2023-07-09T16:00:52;18.90;;;8.53;;
17604;SDS011;8921;50.964;6.800;2023-07-09T16:03:20;15.50;;;10.03;;
17604;SDS011;8921;50.964;6.800;2023-07-09T16:05:48;14.80;;;11.50;;
17604;SDS011;8921;50.964;6.800;2023-07-09T16:08:16;16.80;;;10.50;;
17604;SDS011;8921;50.964;6.800;2023-07-09T16:10:45;15.47;;;9.43;;